Weather observations for the past three days for
Kokomo, Kokomo Municipal Airport
Imperial (Metric)
Date Time (edt) Wind (mph) Vis. (mi.) Weather Sky Cond. Temperature (ºF) Relative Humidity Wind Chill (°F) Heat Index (°F) Pressure Precipitation (in)
Air Dwpt 6 hour altimeter (in) sea level (mb) 1 hr 3 hr 6 hr
Max. Min.
05 18:56 NE 7 10.00 Fair CLR 84 75 74% 92 29.92 1012.5
05 17:56 N 6 10.00 Partly Cloudy FEW034 SCT046 84.9 77 77% 95 29.91 1012.5
05 16:56 NE 5 10.00 Thunderstorm Light Rain BKN032 OVC070 82.9 80.1 91% 95 29.9 1011.9 0.09 0.09
05 15:56 W 9 10.00 A Few Clouds FEW034 90 75 62% 100 29.91 1012.1
05 13:56 W 9 10.00 Fair CLR 88 73 88 70 61% 96 29.95 1013.4
05 12:56 SW 13 10.00 Partly Cloudy SCT036 84 71.1 65% 89 29.97 1014.4
05 11:56 S 9 10.00 Mostly Cloudy BKN040 82 72 72% 87 29.98 1014.5
05 10:56 S 13 10.00 Thunderstorm in Vicinity CLR 78.1 70 76% 80 29.98 1014.4
05 09:56 S 10 10.00 A Few Clouds FEW049 73.9 69.1 85% 29.97 1014.2
05 08:56 S 12 10.00 A Few Clouds FEW049 72 68 87% 29.97 1014.3
05 07:56 S 8 10.00 Fair CLR 70 68 78.1 69.1 93% 29.97 1014.4
05 06:56 SE 20 10.00 Mostly Cloudy FEW028 BKN042 70 68 93% 29.96 1013.7
05 05:56 E 16 G 25 10.00 Mostly Cloudy FEW017 BKN075 75 72 90% 74 29.97 1014.0
05 04:56 SW 3 10.00 Fair CLR 75 73.9 96% 73 29.94 1013.0
05 03:56 SW 6 10.00 Fair CLR 75 73.9 96% 73 29.93 1012.9
05 02:56 W 5 10.00 Fair CLR 75.9 73.9 94% 75 29.91 1012.2
05 01:56 SW 8 10.00 Fair CLR 75.9 75 82 73.9 97% 75 29.93 1013.0
05 00:56 S 3 10.00 Fair CLR 75 75 100% 72 29.95 1013.3
04 23:56 Calm 10.00 Fair CLR 75.9 75 97% 75 29.96 1013.8
04 22:56 Calm 10.00 Fair CLR 77 75.9 96% 78 29.96 1013.9
04 21:56 Calm 10.00 Fair CLR 78.1 77 97% 81 29.96 1013.7
04 20:56 Calm 10.00 Fair CLR 80.1 79 97% 87 29.95 1013.6
04 19:56 S 5 10.00 Fair CLR 82 80.1 93.9 82 94% 93 29.94 1013.3
04 18:56 SE 6 10.00 Fair CLR 87.1 80.1 80% 103 29.94 1013.4
04 17:56 SE 5 10.00 Fair CLR 89.1 80.1 75% 106 29.94 1013.4
04 16:56 NE 7 10.00 Fair CLR 88 78.1 73% 102 29.95 1013.6
04 15:56 NE 12 10.00 Partly Cloudy SCT027 87.1 77 72% 99 29.97 1014.3
04 14:56 NE 5 9.00 Partly Cloudy SCT080 93 73 52% 102 30.01 1015.4
04 13:56 NW 13 10.00 Mostly Cloudy BKN080 90 73 93 73.9 58% 98 30.01 1015.7
04 12:56 SW 8 10.00 Partly Cloudy SCT100 82.9 73.9 74% 89 30.01 1015.7
04 11:56 W 10 10.00 Fair CLR 91 73.9 57% 101 30.02 1016.0
04 10:56 W 13 10.00 Fair CLR 88 73 61% 96 30.02 1016.0
04 09:56 W 10 10.00 Fair CLR 84.9 73 68% 92 30.02 1015.9
04 08:56 SW 6 10.00 Fair CLR 80.1 73.9 82% 85 30.01 1015.7
04 07:56 SW 6 10.00 Fair CLR 73.9 72 75.9 72 94% 30 1015.2
04 06:56 SW 9 10.00 Fair CLR 75 72 90% 74 29.96 1014.0
04 05:56 SW 3 10.00 Fair CLR 73 71.1 94% 29.98 1014.4
04 04:56 SW 6 10.00 Fair CLR 73.9 72 94% 29.97 1014.0
04 03:56 S 9 10.00 Fair CLR 75 73 94% 73 29.97 1014.1
04 02:56 Calm 10.00 Fair CLR 73.9 72 94% 29.99 1014.9
04 01:56 S 3 10.00 Fair CLR 72 72 84 72 100% 30 1015.3
04 00:56 Calm 10.00 Fair CLR 73 72 96% 30.01 1015.5
03 23:56 Calm 10.00 Fair CLR 73 72 96% 30 1015.1
03 22:56 E 3 10.00 Fair CLR 73.9 73 97% 30 1015.4
03 21:56 E 5 10.00 A Few Clouds FEW095 75.9 73 91% 76 30 1015.4
03 20:56 NE 3 10.00 Overcast OVC095 80.1 73.9 82% 85 29.99 1015.0
03 19:56 NE 5 10.00 Mostly Cloudy BKN090 84 71.1 95 84 65% 89 29.99 1014.9
03 18:56 W 13 10.00 Thunderstorm in Vicinity CLR 91 73 56% 100 29.95 1013.7
03 17:56 W 12 10.00 Fair CLR 93 73.9 54% 103 29.96 1013.6
03 16:56 W 15 G 20 10.00 Fair CLR 93.9 73 51% 103 29.96 1013.5
03 15:56 W 13 10.00 Fair CLR 93 73.9 54% 103 29.96 1013.7
03 14:56 SW 10 10.00 A Few Clouds FEW050 93.9 73.9 52% 104 30 1014.8
03 13:56 SW 10 10.00 Fair CLR 93 73.9 93 75 54% 103 30 1015.1
03 12:56 SW 10 10.00 Fair CLR 91.9 73 54% 101 30.01 1015.2
03 11:56 SW 13 10.00 Fair CLR 91 73 56% 100 30.03 1016.0
03 10:56 SW 10 10.00 Fair CLR 88 73 61% 96 30.03 1016.0
03 09:56 SW 9 10.00 Fair CLR 84 72 67% 90 30.02 1015.9
03 08:56 SW 10 10.00 Fair CLR 81 72 74% 85 30.03 1016.4
03 07:56 SW 5 10.00 Fair CLR 75 71.1 80.1 73.9 88% 75 30.03 1016.5
03 06:56 SW 6 10.00 Fair CLR 73.9 71.1 91% 30.02 1015.9
03 05:56 SW 6 10.00 Fair CLR 75.9 70 82% 77 30.01 1015.6
03 04:56 SW 10 10.00 Fair CLR 78.1 70 76% 80 30.01 1015.4
03 03:56 SW 10 10.00 Fair CLR 79 72 79% 82 30 1015.1
03 02:56 SW 9 10.00 Fair CLR 80.1 71.1 74% 84 30 1015.0
03 01:56 SW 8 10.00 Fair CLR 79 73 84.9 78.1 82% 82 30 1015.3
03 00:56 SW 8 10.00 A Few Clouds FEW100 80.1 73 79% 84 29.99 1014.9
02 23:56 S 9 10.00 Fair CLR 79 73.9 85% 83 29.99 1014.9
02 22:56 S 8 10.00 Fair CLR 79 75 88% 83 30 1015.2
02 21:56 S 6 10.00 Fair CLR 80.1 75 85% 85 30.01 1015.4
02 20:56 SW 6 10.00 Partly Cloudy SCT095 82 75 79% 89 29.99 1015.1
02 19:56 SW 8 10.00 Fair CLR 84.9 75 93.9 84.9 72% 93 29.99 1015.1
Date Time (edt) Wind (mph) Vis. (mi.) Weather Sky Cond. Air Dwpt Max. Min. Relative Humidity Wind Chill (°F) Heat Index (°F) altimeter (in) sea level (mb) 1 hr 3 hr 6 hr
6 hour
Temperature (ºF) Pressure Precipitation (in)